sensor_id;sensor_type;location;lat;lon;timestamp;temperature;humidity
50606;DHT22;36557;53.572;10.170;2023-07-08T05:36:00;20.20;99.10
50606;DHT22;36557;53.572;10.170;2023-07-08T05:38:27;20.20;99.30
50606;DHT22;36557;53.572;10.170;2023-07-08T05:40:57;20.40;99.40
50606;DHT22;36557;53.572;10.170;2023-07-08T05:43:24;20.20;99.40
50606;DHT22;36557;53.572;10.170;2023-07-08T05:45:50;20.40;99.20
50606;DHT22;36557;53.572;10.170;2023-07-08T05:48:16;20.70;98.60
50606;DHT22;36557;53.572;10.170;2023-07-08T05:50:42;20.80;98.20
50606;DHT22;36557;53.572;10.170;2023-07-08T05:53:10;20.80;98.60
50606;DHT22;36557;53.572;10.170;2023-07-08T05:55:37;20.80;97.70
50606;DHT22;36557;53.572;10.170;2023-07-08T05:58:02;20.90;98.20
50606;DHT22;36557;53.572;10.170;2023-07-08T06:00:28;20.70;98.00
50606;DHT22;36557;53.572;10.170;2023-07-08T06:02:54;20.90;98.40
50606;DHT22;36557;53.572;10.170;2023-07-08T06:05:20;20.90;97.50
50606;DHT22;36557;53.572;10.170;2023-07-08T06:07:45;21.00;98.40
50606;DHT22;36557;53.572;10.170;2023-07-08T06:10:11;21.30;98.30
50606;DHT22;36557;53.572;10.170;2023-07-08T06:12:37;21.30;97.80
50606;DHT22;36557;53.572;10.170;2023-07-08T06:15:03;21.10;97.50
50606;DHT22;36557;53.572;10.170;2023-07-08T06:17:29;21.30;98.30
50606;DHT22;36557;53.572;10.170;2023-07-08T06:19:54;21.50;97.20
50606;DHT22;36557;53.572;10.170;2023-07-08T06:22:20;21.40;97.20
50606;DHT22;36557;53.572;10.170;2023-07-08T06:24:46;21.60;97.00
50606;DHT22;36557;53.572;10.170;2023-07-08T06:27:13;21.70;97.20
50606;DHT22;36557;53.572;10.170;2023-07-08T06:29:39;21.80;97.10
50606;DHT22;36557;53.572;10.170;2023-07-08T06:32:05;21.60;97.40
50606;DHT22;36557;53.572;10.170;2023-07-08T06:34:31;21.90;96.50
50606;DHT22;36557;53.572;10.170;2023-07-08T06:36:56;22.30;96.80
50606;DHT22;36557;53.572;10.170;2023-07-08T06:39:22;22.40;96.10
50606;DHT22;36557;53.572;10.170;2023-07-08T06:41:48;22.60;95.70
50606;DHT22;36557;53.572;10.170;2023-07-08T06:44:13;22.70;95.90
50606;DHT22;36557;53.572;10.170;2023-07-08T06:46:39;22.50;95.60
50606;DHT22;36557;53.572;10.170;2023-07-08T06:49:05;22.20;95.90
50606;DHT22;36557;53.572;10.170;2023-07-08T06:51:34;22.60;95.80
50606;DHT22;36557;53.572;10.170;2023-07-08T06:54:00;22.80;96.00
50606;DHT22;36557;53.572;10.170;2023-07-08T06:56:30;22.80;95.10
50606;DHT22;36557;53.572;10.170;2023-07-08T06:58:56;22.80;96.00
50606;DHT22;36557;53.572;10.170;2023-07-08T07:01:22;22.90;94.80
50606;DHT22;36557;53.572;10.170;2023-07-08T07:03:48;23.20;94.40
50606;DHT22;36557;53.572;10.170;2023-07-08T07:06:13;23.00;94.40
50606;DHT22;36557;53.572;10.170;2023-07-08T07:08:39;23.20;94.30
50606;DHT22;36557;53.572;10.170;2023-07-08T07:11:05;23.40;93.90
50606;DHT22;36557;53.572;10.170;2023-07-08T07:13:30;23.40;93.80
50606;DHT22;36557;53.572;10.170;2023-07-08T07:15:58;23.60;93.80
50606;DHT22;36557;53.572;10.170;2023-07-08T07:18:23;23.70;93.50
50606;DHT22;36557;53.572;10.170;2023-07-08T07:20:52;23.70;93.50
50606;DHT22;36557;53.572;10.170;2023-07-08T07:23:18;23.90;94.50
50606;DHT22;36557;53.572;10.170;2023-07-08T07:25:45;24.10;93.60
50606;DHT22;36557;53.572;10.170;2023-07-08T07:28:13;24.10;92.80
50606;DHT22;36557;53.572;10.170;2023-07-08T07:30:39;23.80;93.50
50606;DHT22;36557;53.572;10.170;2023-07-08T07:33:05;24.30;93.90
50606;DHT22;36557;53.572;10.170;2023-07-08T07:35:30;24.60;92.50
50606;DHT22;36557;53.572;10.170;2023-07-08T07:37:56;24.70;92.80
50606;DHT22;36557;53.572;10.170;2023-07-08T07:40:22;24.70;92.80
50606;DHT22;36557;53.572;10.170;2023-07-08T07:42:48;24.70;92.50
50606;DHT22;36557;53.572;10.170;2023-07-08T07:45:14;24.70;92.50
50606;DHT22;36557;53.572;10.170;2023-07-08T07:47:40;24.70;92.90
50606;DHT22;36557;53.572;10.170;2023-07-08T07:50:07;24.90;93.30
50606;DHT22;36557;53.572;10.170;2023-07-08T07:52:34;25.10;92.20
50606;DHT22;36557;53.572;10.170;2023-07-08T07:54:59;25.00;93.00
50606;DHT22;36557;53.572;10.170;2023-07-08T07:57:26;24.90;92.80
50606;DHT22;36557;53.572;10.170;2023-07-08T07:59:52;25.30;92.50
50606;DHT22;36557;53.572;10.170;2023-07-08T08:02:18;25.80;91.80
50606;DHT22;36557;53.572;10.170;2023-07-08T08:04:44;25.40;91.20
50606;DHT22;36557;53.572;10.170;2023-07-08T08:07:10;25.90;90.80
50606;DHT22;36557;53.572;10.170;2023-07-08T08:09:40;25.80;90.80
50606;DHT22;36557;53.572;10.170;2023-07-08T08:12:08;25.90;90.40
50606;DHT22;36557;53.572;10.170;2023-07-08T08:14:34;25.80;92.30
50606;DHT22;36557;53.572;10.170;2023-07-08T08:17:00;26.00;92.20
50606;DHT22;36557;53.572;10.170;2023-07-08T08:19:26;26.30;91.20
50606;DHT22;36557;53.572;10.170;2023-07-08T08:21:52;26.10;91.30
50606;DHT22;36557;53.572;10.170;2023-07-08T08:24:18;26.00;91.00
50606;DHT22;36557;53.572;10.170;2023-07-08T08:26:46;26.20;91.50
50606;DHT22;36557;53.572;10.170;2023-07-08T08:29:12;26.30;90.10
50606;DHT22;36557;53.572;10.170;2023-07-08T08:31:38;26.40;90.80
50606;DHT22;36557;53.572;10.170;2023-07-08T08:34:04;26.30;90.70
50606;DHT22;36557;53.572;10.170;2023-07-08T08:36:30;26.60;90.50
50606;DHT22;36557;53.572;10.170;2023-07-08T08:38:55;26.80;89.30
50606;DHT22;36557;53.572;10.170;2023-07-08T08:41:33;26.70;88.60
50606;DHT22;36557;53.572;10.170;2023-07-08T08:44:08;26.70;90.20
50606;DHT22;36557;53.572;10.170;2023-07-08T08:46:53;26.70;87.10
50606;DHT22;36557;53.572;10.170;2023-07-08T08:51:47;26.50;90.70
50606;DHT22;36557;53.572;10.170;2023-07-08T08:54:13;26.60;88.80
50606;DHT22;36557;53.572;10.170;2023-07-08T09:02:39;27.30;87.10
50606;DHT22;36557;53.572;10.170;2023-07-08T09:05:10;27.00;86.30
50606;DHT22;36557;53.572;10.170;2023-07-08T09:13:31;27.20;86.90
50606;DHT22;36557;53.572;10.170;2023-07-08T09:19:15;27.70;85.70
50606;DHT22;36557;53.572;10.170;2023-07-08T09:21:50;27.60;86.60
50606;DHT22;36557;53.572;10.170;2023-07-08T09:24:25;27.80;82.80
50606;DHT22;36557;53.572;10.170;2023-07-08T09:26:55;27.80;84.50
50606;DHT22;36557;53.572;10.170;2023-07-08T09:29:22;27.30;87.40
50606;DHT22;36557;53.572;10.170;2023-07-08T09:31:51;27.50;87.00
50606;DHT22;36557;53.572;10.170;2023-07-08T09:34:23;27.60;83.60
50606;DHT22;36557;53.572;10.170;2023-07-08T09:37:00;27.50;83.80
50606;DHT22;36557;53.572;10.170;2023-07-08T09:39:32;28.00;85.00
50606;DHT22;36557;53.572;10.170;2023-07-08T09:42:06;27.80;84.60
50606;DHT22;36557;53.572;10.170;2023-07-08T09:44:38;27.90;82.10
50606;DHT22;36557;53.572;10.170;2023-07-08T09:47:22;27.50;85.00
50606;DHT22;36557;53.572;10.170;2023-07-08T09:49:52;27.90;84.00
50606;DHT22;36557;53.572;10.170;2023-07-08T09:52:22;28.50;83.10
50606;DHT22;36557;53.572;10.170;2023-07-08T09:54:50;28.60;82.10
50606;DHT22;36557;53.572;10.170;2023-07-08T09:57:29;28.80;81.80
50606;DHT22;36557;53.572;10.170;2023-07-08T10:00:01;28.60;80.00
50606;DHT22;36557;53.572;10.170;2023-07-08T10:02:53;28.50;82.20
50606;DHT22;36557;53.572;10.170;2023-07-08T10:05:33;28.80;82.30
50606;DHT22;36557;53.572;10.170;2023-07-08T10:08:19;28.90;79.60
50606;DHT22;36557;53.572;10.170;2023-07-08T10:11:04;29.10;79.00
50606;DHT22;36557;53.572;10.170;2023-07-08T10:13:45;28.80;79.40
50606;DHT22;36557;53.572;10.170;2023-07-08T10:16:13;29.20;78.90
50606;DHT22;36557;53.572;10.170;2023-07-08T10:18:40;29.70;80.20
50606;DHT22;36557;53.572;10.170;2023-07-08T10:27:17;28.90;81.00
50606;DHT22;36557;53.572;10.170;2023-07-08T10:30:11;29.20;81.40
50606;DHT22;36557;53.572;10.170;2023-07-08T10:38:48;28.60;77.80
50606;DHT22;36557;53.572;10.170;2023-07-08T10:44:44;29.70;79.10
50606;DHT22;36557;53.572;10.170;2023-07-08T10:55:37;30.00;76.70
50606;DHT22;36557;53.572;10.170;2023-07-08T11:01:07;30.80;74.50
50606;DHT22;36557;53.572;10.170;2023-07-08T11:03:45;30.30;77.50
50606;DHT22;36557;53.572;10.170;2023-07-08T11:09:16;30.60;74.60
50606;DHT22;36557;53.572;10.170;2023-07-08T11:12:17;30.70;72.60
50606;DHT22;36557;53.572;10.170;2023-07-08T11:15:02;30.40;75.80
50606;DHT22;36557;53.572;10.170;2023-07-08T11:20:38;31.00;71.90
50606;DHT22;36557;53.572;10.170;2023-07-08T11:23:36;31.20;72.30
50606;DHT22;36557;53.572;10.170;2023-07-08T11:26:27;31.50;70.40
50606;DHT22;36557;53.572;10.170;2023-07-08T11:29:02;31.30;73.30
50606;DHT22;36557;53.572;10.170;2023-07-08T11:31:36;31.80;74.30
50606;DHT22;36557;53.572;10.170;2023-07-08T11:34:08;31.90;72.80
50606;DHT22;36557;53.572;10.170;2023-07-08T11:36:42;32.50;70.60
50606;DHT22;36557;53.572;10.170;2023-07-08T11:39:41;32.20;66.70
50606;DHT22;36557;53.572;10.170;2023-07-08T11:45:02;31.80;69.00
50606;DHT22;36557;53.572;10.170;2023-07-08T11:47:47;31.90;67.70
50606;DHT22;36557;53.572;10.170;2023-07-08T11:50:31;32.10;67.40
50606;DHT22;36557;53.572;10.170;2023-07-08T11:53:46;32.70;69.10
50606;DHT22;36557;53.572;10.170;2023-07-08T11:58:53;32.90;65.80
50606;DHT22;36557;53.572;10.170;2023-07-08T12:01:39;32.30;65.80
50606;DHT22;36557;53.572;10.170;2023-07-08T12:06:48;32.10;66.70
50606;DHT22;36557;53.572;10.170;2023-07-08T12:09:26;32.20;65.30
50606;DHT22;36557;53.572;10.170;2023-07-08T12:12:05;32.60;66.90
50606;DHT22;36557;53.572;10.170;2023-07-08T12:14:37;32.80;66.90
50606;DHT22;36557;53.572;10.170;2023-07-08T12:17:14;32.70;63.20
50606;DHT22;36557;53.572;10.170;2023-07-08T12:19:46;32.60;64.70
50606;DHT22;36557;53.572;10.170;2023-07-08T12:22:20;32.20;66.80
50606;DHT22;36557;53.572;10.170;2023-07-08T12:24:52;32.80;65.00
50606;DHT22;36557;53.572;10.170;2023-07-08T12:27:24;32.70;64.60
50606;DHT22;36557;53.572;10.170;2023-07-08T12:29:53;32.60;64.20
50606;DHT22;36557;53.572;10.170;2023-07-08T12:32:26;33.30;61.70
50606;DHT22;36557;53.572;10.170;2023-07-08T12:35:00;33.30;63.00
50606;DHT22;36557;53.572;10.170;2023-07-08T12:37:35;32.40;62.90
50606;DHT22;36557;53.572;10.170;2023-07-08T12:40:13;32.30;61.90
50606;DHT22;36557;53.572;10.170;2023-07-08T12:42:44;32.30;63.50
50606;DHT22;36557;53.572;10.170;2023-07-08T12:45:19;32.00;66.40
50606;DHT22;36557;53.572;10.170;2023-07-08T12:47:52;33.40;61.50
50606;DHT22;36557;53.572;10.170;2023-07-08T12:50:23;33.30;62.80
50606;DHT22;36557;53.572;10.170;2023-07-08T12:52:52;32.30;64.80
50606;DHT22;36557;53.572;10.170;2023-07-08T12:55:24;32.30;63.50
50606;DHT22;36557;53.572;10.170;2023-07-08T12:57:53;33.30;61.50
50606;DHT22;36557;53.572;10.170;2023-07-08T13:02:58;33.60;61.10
50606;DHT22;36557;53.572;10.170;2023-07-08T13:05:25;33.50;61.50
50606;DHT22;36557;53.572;10.170;2023-07-08T13:07:51;33.60;58.70
50606;DHT22;36557;53.572;10.170;2023-07-08T13:10:23;34.00;63.40
50606;DHT22;36557;53.572;10.170;2023-07-08T13:12:57;34.70;60.00
50606;DHT22;36557;53.572;10.170;2023-07-08T13:15:31;34.20;58.80
50606;DHT22;36557;53.572;10.170;2023-07-08T13:17:58;33.80;58.10
50606;DHT22;36557;53.572;10.170;2023-07-08T13:20:28;33.30;57.30
50606;DHT22;36557;53.572;10.170;2023-07-08T13:23:02;33.60;60.00
50606;DHT22;36557;53.572;10.170;2023-07-08T13:25:30;33.60;60.00
50606;DHT22;36557;53.572;10.170;2023-07-08T13:28:00;34.00;56.40
50606;DHT22;36557;53.572;10.170;2023-07-08T13:30:30;33.80;57.60
50606;DHT22;36557;53.572;10.170;2023-07-08T13:33:01;33.40;58.80
50606;DHT22;36557;53.572;10.170;2023-07-08T13:35:36;34.50;57.70
50606;DHT22;36557;53.572;10.170;2023-07-08T13:38:04;34.80;56.40
50606;DHT22;36557;53.572;10.170;2023-07-08T13:40:31;34.00;59.10
50606;DHT22;36557;53.572;10.170;2023-07-08T13:42:58;33.50;59.30
50606;DHT22;36557;53.572;10.170;2023-07-08T13:45:31;33.80;58.30
50606;DHT22;36557;53.572;10.170;2023-07-08T13:48:02;34.10;57.40
50606;DHT22;36557;53.572;10.170;2023-07-08T13:50:34;34.40;55.60
50606;DHT22;36557;53.572;10.170;2023-07-08T13:53:00;33.70;57.30
50606;DHT22;36557;53.572;10.170;2023-07-08T13:55:27;33.50;55.30
50606;DHT22;36557;53.572;10.170;2023-07-08T13:57:58;33.40;56.90
50606;DHT22;36557;53.572;10.170;2023-07-08T14:00:25;33.40;55.80
50606;DHT22;36557;53.572;10.170;2023-07-08T14:02:51;34.00;55.70
50606;DHT22;36557;53.572;10.170;2023-07-08T14:05:17;33.30;55.10
50606;DHT22;36557;53.572;10.170;2023-07-08T14:07:46;32.80;57.70
50606;DHT22;36557;53.572;10.170;2023-07-08T14:10:12;33.00;57.20
50606;DHT22;36557;53.572;10.170;2023-07-08T14:12:38;32.40;56.80
50606;DHT22;36557;53.572;10.170;2023-07-08T14:15:04;32.70;58.40
50606;DHT22;36557;53.572;10.170;2023-07-08T14:17:32;33.60;55.10
50606;DHT22;36557;53.572;10.170;2023-07-08T14:19:57;33.50;55.80
50606;DHT22;36557;53.572;10.170;2023-07-08T14:22:30;34.40;54.50
50606;DHT22;36557;53.572;10.170;2023-07-08T14:25:04;35.30;56.90
50606;DHT22;36557;53.572;10.170;2023-07-08T14:27:34;34.70;54.20
50606;DHT22;36557;53.572;10.170;2023-07-08T14:30:00;35.50;58.00
50606;DHT22;36557;53.572;10.170;2023-07-08T14:32:28;35.00;52.30
50606;DHT22;36557;53.572;10.170;2023-07-08T14:35:15;34.40;54.40
50606;DHT22;36557;53.572;10.170;2023-07-08T14:37:42;34.00;56.90
50606;DHT22;36557;53.572;10.170;2023-07-08T14:40:22;34.00;54.40
50606;DHT22;36557;53.572;10.170;2023-07-08T14:43:02;34.40;55.50
50606;DHT22;36557;53.572;10.170;2023-07-08T14:45:31;33.30;54.10
50606;DHT22;36557;53.572;10.170;2023-07-08T14:48:00;34.20;54.60
50606;DHT22;36557;53.572;10.170;2023-07-08T14:50:25;33.90;56.80
50606;DHT22;36557;53.572;10.170;2023-07-08T14:52:54;33.80;53.40
50606;DHT22;36557;53.572;10.170;2023-07-08T14:55:20;33.90;55.10
50606;DHT22;36557;53.572;10.170;2023-07-08T14:57:47;33.60;53.70
50606;DHT22;36557;53.572;10.170;2023-07-08T15:00:16;32.60;53.20
50606;DHT22;36557;53.572;10.170;2023-07-08T15:02:44;32.70;55.80
50606;DHT22;36557;53.572;10.170;2023-07-08T15:05:22;32.10;54.10
50606;DHT22;36557;53.572;10.170;2023-07-08T15:07:52;31.80;55.30
50606;DHT22;36557;53.572;10.170;2023-07-08T15:10:19;31.60;54.30
50606;DHT22;36557;53.572;10.170;2023-07-08T15:12:48;31.60;56.40
50606;DHT22;36557;53.572;10.170;2023-07-08T15:15:16;31.30;55.50
50606;DHT22;36557;53.572;10.170;2023-07-08T15:17:42;31.40;55.90
50606;DHT22;36557;53.572;10.170;2023-07-08T15:20:13;31.50;57.80
50606;DHT22;36557;53.572;10.170;2023-07-08T15:22:41;31.80;54.60
50606;DHT22;36557;53.572;10.170;2023-07-08T15:25:09;31.90;56.40
50606;DHT22;36557;53.572;10.170;2023-07-08T15:27:35;31.00;55.60
50606;DHT22;36557;53.572;10.170;2023-07-08T15:30:01;31.60;57.10
50606;DHT22;36557;53.572;10.170;2023-07-08T15:32:26;31.90;57.60
50606;DHT22;36557;53.572;10.170;2023-07-08T15:34:52;31.50;55.10
50606;DHT22;36557;53.572;10.170;2023-07-08T15:37:18;31.50;55.90
50606;DHT22;36557;53.572;10.170;2023-07-08T15:39:44;32.00;54.60
50606;DHT22;36557;53.572;10.170;2023-07-08T15:42:13;31.60;56.40
50606;DHT22;36557;53.572;10.170;2023-07-08T15:44:39;31.10;54.90
50606;DHT22;36557;53.572;10.170;2023-07-08T15:47:05;31.00;57.80
50606;DHT22;36557;53.572;10.170;2023-07-08T15:49:37;31.00;56.70
50606;DHT22;36557;53.572;10.170;2023-07-08T15:52:03;31.10;55.40
50606;DHT22;36557;53.572;10.170;2023-07-08T15:54:28;31.10;57.50
50606;DHT22;36557;53.572;10.170;2023-07-08T15:56:54;31.10;56.40
50606;DHT22;36557;53.572;10.170;2023-07-08T15:59:26;31.00;56.70
50606;DHT22;36557;53.572;10.170;2023-07-08T16:01:53;30.60;59.20
50606;DHT22;36557;53.572;10.170;2023-07-08T16:04:32;30.50;63.50
50606;DHT22;36557;53.572;10.170;2023-07-08T16:06:57;30.10;65.40
50606;DHT22;36557;53.572;10.170;2023-07-08T16:09:23;29.80;65.50
50606;DHT22;36557;53.572;10.170;2023-07-08T16:11:49;29.50;66.70
50606;DHT22;36557;53.572;10.170;2023-07-08T16:14:16;29.40;67.30
50606;DHT22;36557;53.572;10.170;2023-07-08T16:16:43;29.20;67.80
50606;DHT22;36557;53.572;10.170;2023-07-08T16:19:13;29.00;68.50
50606;DHT22;36557;53.572;10.170;2023-07-08T16:21:39;29.30;68.80
50606;DHT22;36557;53.572;10.170;2023-07-08T16:24:06;29.00;69.60
50606;DHT22;36557;53.572;10.170;2023-07-08T16:26:32;28.70;69.00
50606;DHT22;36557;53.572;10.170;2023-07-08T16:28:58;28.60;69.80
50606;DHT22;36557;53.572;10.170;2023-07-08T16:31:25;28.50;69.60
50606;DHT22;36557;53.572;10.170;2023-07-08T16:33:54;28.60;70.40
50606;DHT22;36557;53.572;10.170;2023-07-08T16:36:23;28.60;70.50
50606;DHT22;36557;53.572;10.170;2023-07-08T16:38:49;28.50;71.30
50606;DHT22;36557;53.572;10.170;2023-07-08T16:41:17;28.50;70.60
50606;DHT22;36557;53.572;10.170;2023-07-08T16:43:44;28.40;70.50
50606;DHT22;36557;53.572;10.170;2023-07-08T16:46:10;28.30;70.90
50606;DHT22;36557;53.572;10.170;2023-07-08T16:48:37;28.20;70.90
50606;DHT22;36557;53.572;10.170;2023-07-08T16:51:13;28.30;71.50
50606;DHT22;36557;53.572;10.170;2023-07-08T16:53:39;28.30;71.70
50606;DHT22;36557;53.572;10.170;2023-07-08T16:56:07;28.30;70.10
50606;DHT22;36557;53.572;10.170;2023-07-08T16:58:33;28.30;71.90
50606;DHT22;36557;53.572;10.170;2023-07-08T17:00:58;28.20;71.50
50606;DHT22;36557;53.572;10.170;2023-07-08T17:03:24;28.10;71.00
50606;DHT22;36557;53.572;10.170;2023-07-08T17:05:50;28.10;71.70
50606;DHT22;36557;53.572;10.170;2023-07-08T17:08:18;28.20;71.50
50606;DHT22;36557;53.572;10.170;2023-07-08T17:10:44;28.20;71.70
50606;DHT22;36557;53.572;10.170;2023-07-08T17:13:10;28.10;70.70
50606;DHT22;36557;53.572;10.170;2023-07-08T17:15:37;28.00;72.00
50606;DHT22;36557;53.572;10.170;2023-07-08T17:18:04;27.90;72.20
50606;DHT22;36557;53.572;10.170;2023-07-08T17:20:37;27.70;72.50
50606;DHT22;36557;53.572;10.170;2023-07-08T17:23:15;27.60;72.60
50606;DHT22;36557;53.572;10.170;2023-07-08T17:25:41;27.70;74.30
50606;DHT22;36557;53.572;10.170;2023-07-08T17:28:07;27.60;72.30
50606;DHT22;36557;53.572;10.170;2023-07-08T17:30:33;27.60;72.60
50606;DHT22;36557;53.572;10.170;2023-07-08T17:32:59;27.30;72.00
50606;DHT22;36557;53.572;10.170;2023-07-08T17:35:27;27.20;72.20
50606;DHT22;36557;53.572;10.170;2023-07-08T17:37:54;27.10;72.20
50606;DHT22;36557;53.572;10.170;2023-07-08T17:40:27;26.90;72.70
50606;DHT22;36557;53.572;10.170;2023-07-08T17:42:54;26.90;72.50
50606;DHT22;36557;53.572;10.170;2023-07-08T17:45:36;26.90;73.00
50606;DHT22;36557;53.572;10.170;2023-07-08T17:48:03;26.80;72.00
50606;DHT22;36557;53.572;10.170;2023-07-08T17:50:29;26.70;72.30
50606;DHT22;36557;53.572;10.170;2023-07-08T17:52:55;26.60;72.00
50606;DHT22;36557;53.572;10.170;2023-07-08T17:55:24;26.50;73.20
50606;DHT22;36557;53.572;10.170;2023-07-08T17:57:51;26.50;72.90
50606;DHT22;36557;53.572;10.170;2023-07-08T18:00:22;26.40;73.50
50606;DHT22;36557;53.572;10.170;2023-07-08T18:02:48;26.40;73.30
50606;DHT22;36557;53.572;10.170;2023-07-08T18:05:22;26.30;72.80
50606;DHT22;36557;53.572;10.170;2023-07-08T18:07:49;26.10;73.40
50606;DHT22;36557;53.572;10.170;2023-07-08T18:10:16;26.10;74.90
50606;DHT22;36557;53.572;10.170;2023-07-08T18:12:44;26.10;73.30
50606;DHT22;36557;53.572;10.170;2023-07-08T18:15:29;26.20;73.80
50606;DHT22;36557;53.572;10.170;2023-07-08T18:17:58;26.10;74.30
50606;DHT22;36557;53.572;10.170;2023-07-08T18:20:34;25.90;74.30
50606;DHT22;36557;53.572;10.170;2023-07-08T18:23:02;25.80;74.50
50606;DHT22;36557;53.572;10.170;2023-07-08T18:25:31;25.70;74.40
50606;DHT22;36557;53.572;10.170;2023-07-08T18:28:00;25.60;74.60
50606;DHT22;36557;53.572;10.170;2023-07-08T18:30:28;25.50;74.70
50606;DHT22;36557;53.572;10.170;2023-07-08T18:32:54;25.30;75.10
50606;DHT22;36557;53.572;10.170;2023-07-08T18:35:23;25.20;75.30
50606;DHT22;36557;53.572;10.170;2023-07-08T18:37:50;25.20;75.50
50606;DHT22;36557;53.572;10.170;2023-07-08T18:40:19;25.20;77.00
50606;DHT22;36557;53.572;10.170;2023-07-08T18:43:05;25.10;76.00
50606;DHT22;36557;53.572;10.170;2023-07-08T18:45:32;24.90;77.20
50606;DHT22;36557;53.572;10.170;2023-07-08T18:47:58;24.80;77.60
50606;DHT22;36557;53.572;10.170;2023-07-08T18:50:24;24.70;77.50
50606;DHT22;36557;53.572;10.170;2023-07-08T18:52:50;24.60;76.90
50606;DHT22;36557;53.572;10.170;2023-07-08T18:55:19;24.50;77.80
50606;DHT22;36557;53.572;10.170;2023-07-08T18:57:45;24.50;77.80
50606;DHT22;36557;53.572;10.170;2023-07-08T19:00:17;24.40;78.00
50606;DHT22;36557;53.572;10.170;2023-07-08T19:02:55;24.20;78.50
50606;DHT22;36557;53.572;10.170;2023-07-08T19:05:22;24.10;79.10
50606;DHT22;36557;53.572;10.170;2023-07-08T19:07:52;23.90;80.00
50606;DHT22;36557;53.572;10.170;2023-07-08T19:10:21;23.80;79.80
50606;DHT22;36557;53.572;10.170;2023-07-08T19:12:57;23.80;80.10
50606;DHT22;36557;53.572;10.170;2023-07-08T19:15:31;23.70;81.10
50606;DHT22;36557;53.572;10.170;2023-07-08T19:17:58;23.70;80.80
50606;DHT22;36557;53.572;10.170;2023-07-08T19:20:45;23.50;81.50
50606;DHT22;36557;53.572;10.170;2023-07-08T19:23:34;23.40;82.10
50606;DHT22;36557;53.572;10.170;2023-07-08T19:26:17;23.30;81.90
50606;DHT22;36557;53.572;10.170;2023-07-08T19:28:51;23.30;82.80
50606;DHT22;36557;53.572;10.170;2023-07-08T19:31:30;23.30;82.70
50606;DHT22;36557;53.572;10.170;2023-07-08T19:34:02;23.10;83.30
50606;DHT22;36557;53.572;10.170;2023-07-08T19:36:30;23.00;83.90
50606;DHT22;36557;53.572;10.170;2023-07-08T19:38:57;22.90;84.40
50606;DHT22;36557;53.572;10.170;2023-07-08T19:41:34;22.80;84.60
